Terminal Aerodrome Forecast
Issued by NWS

Home | Current Version | Previous Version | Text Only | Print | Product List | Glossary On
Versions: 1 2 3 4 5 6 7 8 9 10 11 12 13 14 15 16 17
075
FTUS43 KLSX 251726
TAFCPS
TAF
KCPS 251726Z 2518/2618 34007KT P6SM VCTS SCT015CB BKN100
      TEMPO 2518/2520 BKN015CB
     FM260100 VRB04KT P6SM SCT040 BKN250
      TEMPO 2608/2612 5SM BR
     FM261600 06005KT P6SM SCT025 BKN250=

USA.gov is the U.S. government's official web portal to all federal, state and local government web resources and services.